PWSweather.com
Personal Weather Stations
Station Observations
YARKER1
Yarker, ON

Yarker, ON

Lat: 44.37, Lon: -76.77

Elevation: 508

Station Type: acurite pro

Latest ConditionsUpdated 5:10:00 PM EST Sunday, Jan 19, 2020
Currently Today's Max Today's Min Today's Average
Temperature 14.5°F-9.7°C 17.7°F-7.9°C 9.0°F-12.8°C 12.8°F-10.7°C
Dew Point 9.9°F-12.3°C 13.5°F-10.3°C 7.5°F-13.6°C 10.4°F-12.0°C
Winds 5.2 mph NNW8.4 kmh NNW 9.0 mph -14.5 kmh - - 4.7 mph 7.6 kmh
Wind Gusts 8.3 mph13.4 kmh 13.0 mph20.9 kmh - -
Humidity 81% 96% 77% 90%
Pressure 30.08 in1018.6 mb 30.08 in1018.6 mb 29.59 in1002.0 mb -
Hour Temp Dew Point Humidity Winds Wind Gusts Pressure Precip Precip Rate Daily Precip Total
05:10 PM 14.5°F-9.7°C 9.9°F-12.3°C 81% 5.2 mph NNW8.4 kmh NNW 8.3 mph13.4 kmh 30.08 in1018.6 mb 0.00 in0.0 mm 0.00 in0.0 mm 0.00 in0.0 mm
05:00 PM 14.6°F-9.7°C 9.6°F-12.4°C 80% 7.0 mph N11.3 kmh N 12.5 mph20.1 kmh 30.07 in1018.3 mb 0.00 in0.0 mm 0.00 in0.0 mm 0.00 in0.0 mm
04:50 PM 14.8°F-9.6°C 10.1°F-12.2°C 81% 5.6 mph N9.0 kmh N 8.3 mph13.4 kmh 30.06 in1017.9 mb 0.00 in0.0 mm 0.00 in0.0 mm 0.00 in0.0 mm
04:40 PM 15.0°F-9.4°C 10.1°F-12.2°C 80% 4.2 mph NNW6.8 kmh NNW 6.8 mph10.9 kmh 30.05 in1017.6 mb 0.00 in0.0 mm 0.00 in0.0 mm 0.00 in0.0 mm
04:30 PM 15.2°F-9.3°C 10.4°F-12.0°C 81% 3.9 mph N6.3 kmh N 5.8 mph9.3 kmh 30.04 in1017.3 mb 0.00 in0.0 mm 0.00 in0.0 mm 0.00 in0.0 mm
04:20 PM 15.3°F-9.3°C 10.5°F-11.9°C 81% 4.1 mph NNW6.6 kmh NNW 6.3 mph10.1 kmh 30.04 in1017.3 mb 0.00 in0.0 mm 0.00 in0.0 mm 0.00 in0.0 mm
04:10 PM 15.3°F-9.3°C 9.8°F-12.3°C 78% 5.0 mph N8.0 kmh N 7.3 mph11.7 kmh 30.03 in1016.9 mb 0.00 in0.0 mm 0.00 in0.0 mm 0.00 in0.0 mm
04:00 PM 15.4°F-9.2°C 9.5°F-12.5°C 77% 6.7 mph N10.8 kmh N 10.4 mph16.7 kmh 30.02 in1016.6 mb 0.00 in0.0 mm 0.00 in0.0 mm 0.00 in0.0 mm
03:50 PM 15.4°F-9.2°C 9.6°F-12.4°C 77% 6.5 mph N10.5 kmh N 9.9 mph15.9 kmh 30.01 in1016.3 mb 0.00 in0.0 mm 0.00 in0.0 mm 0.00 in0.0 mm
03:40 PM 15.7°F-9.1°C 10.0°F-12.2°C 78% 9.0 mph N14.5 kmh N 13.0 mph20.9 kmh 30.01 in1016.3 mb 0.00 in0.0 mm 0.00 in0.0 mm 0.00 in0.0 mm
03:30 PM 16.0°F-8.9°C 10.9°F-11.7°C 80% 6.6 mph NNW10.6 kmh NNW 12.5 mph20.1 kmh 30.00 in1015.9 mb 0.00 in0.0 mm 0.00 in0.0 mm 0.00 in0.0 mm
03:20 PM 16.4°F-8.7°C 11.2°F-11.6°C 79% 4.8 mph N7.7 kmh N 8.9 mph14.3 kmh 29.99 in1015.6 mb 0.00 in0.0 mm 0.00 in0.0 mm 0.00 in0.0 mm
03:10 PM 16.4°F-8.7°C 12.0°F-11.1°C 82% 3.9 mph NW6.3 kmh NW 6.8 mph10.9 kmh 29.99 in1015.6 mb 0.00 in0.0 mm 0.00 in0.0 mm 0.00 in0.0 mm
03:00 PM 16.7°F-8.5°C 12.3°F-10.9°C 82% 4.9 mph NW7.9 kmh NW 8.3 mph13.4 kmh 29.98 in1015.2 mb 0.00 in0.0 mm 0.00 in0.0 mm 0.00 in0.0 mm
02:50 PM 16.7°F-8.5°C 12.1°F-11.1°C 82% 5.3 mph NW8.5 kmh NW 9.9 mph15.9 kmh 29.97 in1014.9 mb 0.00 in0.0 mm 0.00 in0.0 mm 0.00 in0.0 mm
02:40 PM 17.0°F-8.3°C 12.3°F-10.9°C 81% 5.7 mph NW9.2 kmh NW 10.9 mph17.5 kmh 29.96 in1014.6 mb 0.00 in0.0 mm 0.00 in0.0 mm 0.00 in0.0 mm
02:30 PM 17.2°F-8.2°C 12.1°F-11.1°C 80% 6.0 mph NW9.7 kmh NW 8.9 mph14.3 kmh 29.96 in1014.6 mb 0.00 in0.0 mm 0.00 in0.0 mm 0.00 in0.0 mm
02:20 PM 17.7°F-7.9°C 12.8°F-10.7°C 81% 4.3 mph NW6.9 kmh NW 6.8 mph10.9 kmh 29.95 in1014.2 mb 0.00 in0.0 mm 0.00 in0.0 mm 0.00 in0.0 mm
02:10 PM 17.4°F-8.1°C 12.5°F-10.8°C 81% 5.0 mph NNW8.0 kmh NNW 8.9 mph14.3 kmh 29.95 in1014.2 mb 0.00 in0.0 mm 0.00 in0.0 mm 0.00 in0.0 mm
02:00 PM 17.2°F-8.2°C 12.6°F-10.8°C 82% 5.3 mph NW8.5 kmh NW 7.8 mph12.6 kmh 29.94 in1013.9 mb 0.00 in0.0 mm 0.00 in0.0 mm 0.00 in0.0 mm
01:50 PM 17.2°F-8.2°C 12.6°F-10.8°C 82% 4.8 mph NNW7.7 kmh NNW 8.3 mph13.4 kmh 29.93 in1013.5 mb 0.00 in0.0 mm 0.00 in0.0 mm 0.00 in0.0 mm
01:40 PM 17.1°F-8.3°C 12.3°F-10.9°C 81% 5.6 mph NNW9.0 kmh NNW 8.3 mph13.4 kmh 29.93 in1013.5 mb 0.00 in0.0 mm 0.00 in0.0 mm 0.00 in0.0 mm
01:30 PM 16.7°F-8.5°C 12.3°F-10.9°C 82% 6.5 mph NNW10.5 kmh NNW 10.4 mph16.7 kmh 29.92 in1013.2 mb 0.00 in0.0 mm 0.00 in0.0 mm 0.00 in0.0 mm
01:20 PM 16.5°F-8.6°C 11.9°F-11.2°C 82% 7.2 mph NNW11.6 kmh NNW 10.4 mph16.7 kmh 29.92 in1013.2 mb 0.00 in0.0 mm 0.00 in0.0 mm 0.00 in0.0 mm
01:10 PM 16.3°F-8.7°C 11.6°F-11.3°C 81% 6.7 mph NNW10.8 kmh NNW 9.9 mph15.9 kmh 29.92 in1013.2 mb 0.00 in0.0 mm 0.00 in0.0 mm 0.00 in0.0 mm
01:00 PM 16.1°F-8.8°C 11.8°F-11.2°C 83% 6.7 mph NNW10.8 kmh NNW 11.4 mph18.3 kmh 29.92 in1013.2 mb 0.00 in0.0 mm 0.00 in0.0 mm 0.00 in0.0 mm
12:50 PM 15.5°F-9.2°C 11.6°F-11.3°C 84% 5.8 mph NNW9.3 kmh NNW 10.4 mph16.7 kmh 29.91 in1012.9 mb 0.00 in0.0 mm 0.00 in0.0 mm 0.00 in0.0 mm
12:40 PM 14.8°F-9.6°C 11.1°F-11.6°C 85% 6.5 mph NNW10.5 kmh NNW 10.4 mph16.7 kmh 29.91 in1012.9 mb 0.00 in0.0 mm 0.00 in0.0 mm 0.00 in0.0 mm
12:30 PM 14.6°F-9.7°C 10.9°F-11.7°C 85% 6.7 mph N10.8 kmh N 9.9 mph15.9 kmh 29.91 in1012.9 mb 0.00 in0.0 mm 0.00 in0.0 mm 0.00 in0.0 mm
12:20 PM 15.5°F-9.2°C 11.7°F-11.3°C 85% 6.1 mph NNW9.8 kmh NNW 12.5 mph20.1 kmh 29.91 in1012.9 mb 0.00 in0.0 mm 0.00 in0.0 mm 0.00 in0.0 mm
12:10 PM 14.6°F-9.7°C 11.5°F-11.4°C 87% 4.3 mph NW6.9 kmh NW 9.4 mph15.1 kmh 29.91 in1012.9 mb 0.00 in0.0 mm 0.00 in0.0 mm 0.00 in0.0 mm
12:00 PM 13.8°F-10.1°C 10.6°F-11.9°C 87% 5.8 mph NW9.3 kmh NW 8.9 mph14.3 kmh 29.91 in1012.9 mb 0.00 in0.0 mm 0.00 in0.0 mm 0.00 in0.0 mm
11:50 AM 13.9°F-10.1°C 10.6°F-11.9°C 87% 5.6 mph NW9.0 kmh NW 9.9 mph15.9 kmh 29.91 in1012.9 mb 0.00 in0.0 mm 0.00 in0.0 mm 0.00 in0.0 mm
11:40 AM 14.0°F-10.0°C 10.8°F-11.8°C 87% 5.3 mph NNW8.5 kmh NNW 8.9 mph14.3 kmh 29.90 in1012.5 mb 0.00 in0.0 mm 0.00 in0.0 mm 0.00 in0.0 mm
11:30 AM 13.6°F-10.2°C 10.7°F-11.8°C 88% 5.4 mph NNW8.7 kmh NNW 9.9 mph15.9 kmh 29.91 in1012.9 mb 0.00 in0.0 mm 0.00 in0.0 mm 0.00 in0.0 mm
11:20 AM 13.6°F-10.2°C 10.9°F-11.7°C 89% 4.9 mph NW7.9 kmh NW 7.8 mph12.6 kmh 29.91 in1012.9 mb 0.00 in0.0 mm 0.00 in0.0 mm 0.00 in0.0 mm
11:10 AM 13.1°F-10.5°C 10.3°F-12.1°C 88% 5.5 mph NW8.9 kmh NW 8.3 mph13.4 kmh 29.91 in1012.9 mb 0.00 in0.0 mm 0.00 in0.0 mm 0.00 in0.0 mm
11:00 AM 13.2°F-10.4°C 10.6°F-11.9°C 89% 5.1 mph NW8.2 kmh NW 8.3 mph13.4 kmh 29.90 in1012.5 mb 0.00 in0.0 mm 0.00 in0.0 mm 0.00 in0.0 mm
10:50 AM 12.7°F-10.7°C 10.0°F-12.2°C 89% 5.1 mph NW8.2 kmh NW 9.4 mph15.1 kmh 29.90 in1012.5 mb 0.00 in0.0 mm 0.00 in0.0 mm 0.00 in0.0 mm
10:40 AM 12.8°F-10.7°C 10.2°F-12.1°C 89% 4.8 mph NNW7.7 kmh NNW 8.3 mph13.4 kmh 29.89 in1012.2 mb 0.00 in0.0 mm 0.00 in0.0 mm 0.00 in0.0 mm
10:30 AM 12.4°F-10.9°C 10.0°F-12.2°C 90% 5.1 mph NW8.2 kmh NW 8.9 mph14.3 kmh 29.89 in1012.2 mb 0.00 in0.0 mm 0.00 in0.0 mm 0.00 in0.0 mm
10:20 AM 12.1°F-11.1°C 9.8°F-12.3°C 90% 4.4 mph NW7.1 kmh NW 6.8 mph10.9 kmh 29.89 in1012.2 mb 0.00 in0.0 mm 0.00 in0.0 mm 0.00 in0.0 mm
10:10 AM 11.8°F-11.2°C 9.7°F-12.4°C 91% 3.8 mph NW6.1 kmh NW 6.8 mph10.9 kmh 29.88 in1011.9 mb 0.00 in0.0 mm 0.00 in0.0 mm 0.00 in0.0 mm
10:00 AM 11.4°F-11.4°C 9.4°F-12.6°C 92% 3.9 mph NW6.3 kmh NW 7.3 mph11.7 kmh 29.88 in1011.9 mb 0.00 in0.0 mm 0.00 in0.0 mm 0.00 in0.0 mm
09:50 AM 10.9°F-11.7°C 9.1°F-12.7°C 92% 2.8 mph WNW4.5 kmh WNW 5.8 mph9.3 kmh 29.87 in1011.5 mb 0.00 in0.0 mm 0.00 in0.0 mm 0.00 in0.0 mm
09:40 AM 10.4°F-12.0°C 8.6°F-13.0°C 92% 3.8 mph NW6.1 kmh NW 6.8 mph10.9 kmh 29.86 in1011.2 mb 0.00 in0.0 mm 0.00 in0.0 mm 0.00 in0.0 mm
09:30 AM 10.2°F-12.1°C 8.3°F-13.2°C 92% 3.9 mph NW6.3 kmh NW 7.3 mph11.7 kmh 29.86 in1011.2 mb 0.00 in0.0 mm 0.00 in0.0 mm 0.00 in0.0 mm
09:20 AM 9.9°F-12.3°C 8.1°F-13.3°C 92% 4.7 mph NNW7.6 kmh NNW 7.3 mph11.7 kmh 29.85 in1010.8 mb 0.00 in0.0 mm 0.00 in0.0 mm 0.00 in0.0 mm
09:10 AM 9.7°F-12.4°C 7.9°F-13.4°C 92% 5.6 mph NW9.0 kmh NW 8.3 mph13.4 kmh 29.85 in1010.8 mb 0.00 in0.0 mm 0.00 in0.0 mm 0.00 in0.0 mm
09:00 AM 9.6°F-12.4°C 7.9°F-13.4°C 93% 4.7 mph NNW7.6 kmh NNW 8.9 mph14.3 kmh 29.84 in1010.5 mb 0.00 in0.0 mm 0.00 in0.0 mm 0.00 in0.0 mm
08:50 AM 9.2°F-12.7°C 7.6°F-13.6°C 93% 4.8 mph NW7.7 kmh NW 6.8 mph10.9 kmh 29.84 in1010.5 mb 0.00 in0.0 mm 0.00 in0.0 mm 0.00 in0.0 mm
08:40 AM 9.1°F-12.7°C 7.5°F-13.6°C 93% 5.0 mph NNW8.0 kmh NNW 7.3 mph11.7 kmh 29.83 in1010.2 mb 0.00 in0.0 mm 0.00 in0.0 mm 0.00 in0.0 mm
08:30 AM 9.1°F-12.7°C 7.6°F-13.6°C 94% 4.5 mph NW7.2 kmh NW 6.8 mph10.9 kmh 29.82 in1009.8 mb 0.00 in0.0 mm 0.00 in0.0 mm 0.00 in0.0 mm
08:20 AM 9.1°F-12.7°C 7.7°F-13.5°C 94% 4.6 mph NW7.4 kmh NW 7.3 mph11.7 kmh 29.82 in1009.8 mb 0.00 in0.0 mm 0.00 in0.0 mm 0.00 in0.0 mm
08:10 AM 9.0°F-12.8°C 7.7°F-13.5°C 94% 4.3 mph NW6.9 kmh NW 7.8 mph12.6 kmh 29.81 in1009.5 mb 0.00 in0.0 mm 0.00 in0.0 mm 0.00 in0.0 mm
08:00 AM 9.0°F-12.8°C 7.6°F-13.6°C 94% 3.1 mph NNW5.0 kmh NNW 4.7 mph7.6 kmh 29.79 in1008.8 mb 0.00 in0.0 mm 0.00 in0.0 mm 0.00 in0.0 mm
07:50 AM 9.0°F-12.8°C 7.6°F-13.6°C 94% 4.2 mph NNW6.8 kmh NNW 7.3 mph11.7 kmh 29.79 in1008.8 mb 0.00 in0.0 mm 0.00 in0.0 mm 0.00 in0.0 mm
07:40 AM 9.1°F-12.7°C 7.7°F-13.5°C 94% 3.6 mph NW5.8 kmh NW 6.3 mph10.1 kmh 29.78 in1008.5 mb 0.00 in0.0 mm 0.00 in0.0 mm 0.00 in0.0 mm
07:30 AM 9.1°F-12.7°C 7.7°F-13.5°C 94% 2.7 mph NNW4.3 kmh NNW 5.3 mph8.5 kmh 29.77 in1008.1 mb 0.00 in0.0 mm 0.00 in0.0 mm 0.00 in0.0 mm
07:20 AM 9.3°F-12.6°C 7.9°F-13.4°C 94% 2.8 mph NW4.5 kmh NW 5.3 mph8.5 kmh 29.77 in1008.1 mb 0.00 in0.0 mm 0.00 in0.0 mm 0.00 in0.0 mm
07:10 AM 9.3°F-12.6°C 7.9°F-13.4°C 94% 3.5 mph NNW5.6 kmh NNW 5.8 mph9.3 kmh 29.76 in1007.8 mb 0.00 in0.0 mm 0.00 in0.0 mm 0.00 in0.0 mm
07:00 AM 9.3°F-12.6°C 7.9°F-13.4°C 94% 3.8 mph NNW6.1 kmh NNW 7.8 mph12.6 kmh 29.75 in1007.5 mb 0.00 in0.0 mm 0.00 in0.0 mm 0.00 in0.0 mm
06:50 AM 9.3°F-12.6°C 7.9°F-13.4°C 94% 4.8 mph N7.7 kmh N 6.3 mph10.1 kmh 29.75 in1007.5 mb 0.00 in0.0 mm 0.00 in0.0 mm 0.00 in0.0 mm
06:40 AM 9.3°F-12.6°C 7.9°F-13.4°C 94% 4.8 mph NNW7.7 kmh NNW 7.8 mph12.6 kmh 29.74 in1007.1 mb 0.00 in0.0 mm 0.00 in0.0 mm 0.00 in0.0 mm
06:30 AM 9.4°F-12.6°C 8.1°F-13.3°C 94% 5.6 mph N9.0 kmh N 8.9 mph14.3 kmh 29.74 in1007.1 mb 0.00 in0.0 mm 0.00 in0.0 mm 0.00 in0.0 mm
06:20 AM 9.6°F-12.4°C 8.2°F-13.2°C 94% 4.6 mph NNW7.4 kmh NNW 6.8 mph10.9 kmh 29.73 in1006.8 mb 0.00 in0.0 mm 0.00 in0.0 mm 0.00 in0.0 mm
06:10 AM 9.9°F-12.3°C 8.6°F-13.0°C 94% 5.3 mph NNW8.5 kmh NNW 8.3 mph13.4 kmh 29.71 in1006.1 mb 0.00 in0.0 mm 0.00 in0.0 mm 0.00 in0.0 mm
06:00 AM 10.3°F-12.1°C 9.0°F-12.8°C 94% 3.9 mph N6.3 kmh N 5.8 mph9.3 kmh 29.70 in1005.8 mb 0.00 in0.0 mm 0.00 in0.0 mm 0.00 in0.0 mm
05:50 AM 10.4°F-12.0°C 9.0°F-12.8°C 94% 4.5 mph N7.2 kmh N 6.8 mph10.9 kmh 29.71 in1006.1 mb 0.00 in0.0 mm 0.00 in0.0 mm 0.00 in0.0 mm
05:40 AM 10.5°F-11.9°C 9.3°F-12.6°C 95% 7.3 mph NNW11.7 kmh NNW 12.5 mph20.1 kmh 29.70 in1005.8 mb 0.00 in0.0 mm 0.00 in0.0 mm 0.00 in0.0 mm
05:30 AM 10.8°F-11.8°C 9.6°F-12.4°C 95% 4.1 mph N6.6 kmh N 7.3 mph11.7 kmh 29.67 in1004.7 mb 0.00 in0.0 mm 0.00 in0.0 mm 0.00 in0.0 mm
05:20 AM 10.9°F-11.7°C 9.8°F-12.3°C 95% 3.3 mph N5.3 kmh N 4.7 mph7.6 kmh 29.67 in1004.7 mb 0.00 in0.0 mm 0.00 in0.0 mm 0.00 in0.0 mm
05:10 AM 10.9°F-11.7°C 9.8°F-12.3°C 95% 3.4 mph NNE5.5 kmh NNE 5.8 mph9.3 kmh 29.67 in1004.7 mb 0.00 in0.0 mm 0.00 in0.0 mm 0.00 in0.0 mm
05:00 AM 10.9°F-11.7°C 9.8°F-12.3°C 95% 3.9 mph NNE6.3 kmh NNE 6.8 mph10.9 kmh 29.66 in1004.4 mb 0.00 in0.0 mm 0.00 in0.0 mm 0.00 in0.0 mm
04:50 AM 10.9°F-11.7°C 9.8°F-12.3°C 95% 3.6 mph N5.8 kmh N 5.3 mph8.5 kmh 29.66 in1004.4 mb 0.00 in0.0 mm 0.00 in0.0 mm 0.00 in0.0 mm
04:40 AM 11.2°F-11.6°C 10.0°F-12.2°C 95% 4.0 mph N6.4 kmh N 6.3 mph10.1 kmh 29.66 in1004.4 mb 0.00 in0.0 mm 0.00 in0.0 mm 0.00 in0.0 mm
04:30 AM 11.4°F-11.4°C 10.3°F-12.1°C 95% 4.3 mph N6.9 kmh N 4.7 mph7.6 kmh 29.65 in1004.1 mb 0.00 in0.0 mm 0.00 in0.0 mm 0.00 in0.0 mm
04:20 AM 11.5°F-11.4°C 10.4°F-12.0°C 95% 4.6 mph N7.4 kmh N 7.3 mph11.7 kmh 29.65 in1004.1 mb 0.00 in0.0 mm 0.00 in0.0 mm 0.00 in0.0 mm
04:10 AM 11.6°F-11.3°C 10.4°F-12.0°C 95% 4.9 mph N7.9 kmh N 7.3 mph11.7 kmh 29.65 in1004.1 mb 0.00 in0.0 mm 0.00 in0.0 mm 0.00 in0.0 mm
04:00 AM 11.7°F-11.3°C 10.6°F-11.9°C 95% 4.8 mph N7.7 kmh N 6.8 mph10.9 kmh 29.64 in1003.7 mb 0.00 in0.0 mm 0.00 in0.0 mm 0.00 in0.0 mm
03:50 AM 11.7°F-11.3°C 10.6°F-11.9°C 95% 4.8 mph N7.7 kmh N 6.8 mph10.9 kmh 29.64 in1003.7 mb 0.00 in0.0 mm 0.00 in0.0 mm 0.00 in0.0 mm
03:40 AM 11.8°F-11.2°C 10.6°F-11.9°C 95% 3.9 mph N6.3 kmh N 5.3 mph8.5 kmh 29.63 in1003.4 mb 0.00 in0.0 mm 0.00 in0.0 mm 0.00 in0.0 mm
03:30 AM 11.8°F-11.2°C 10.6°F-11.9°C 95% 3.6 mph N5.8 kmh N 5.3 mph8.5 kmh 29.63 in1003.4 mb 0.00 in0.0 mm 0.00 in0.0 mm 0.00 in0.0 mm
03:20 AM 12.0°F-11.1°C 10.8°F-11.8°C 95% 4.8 mph N7.7 kmh N 6.8 mph10.9 kmh 29.63 in1003.4 mb 0.00 in0.0 mm 0.00 in0.0 mm 0.00 in0.0 mm
03:10 AM 12.2°F-11.0°C 11.3°F-11.5°C 96% 4.0 mph N6.4 kmh N 5.3 mph8.5 kmh 29.63 in1003.4 mb 0.00 in0.0 mm 0.00 in0.0 mm 0.00 in0.0 mm
03:00 AM 12.4°F-10.9°C 11.5°F-11.4°C 96% 3.3 mph N5.3 kmh N 4.7 mph7.6 kmh 29.63 in1003.4 mb 0.00 in0.0 mm 0.00 in0.0 mm 0.00 in0.0 mm
02:50 AM 12.5°F-10.8°C 11.6°F-11.3°C 96% 4.1 mph NNW6.6 kmh NNW 5.8 mph9.3 kmh 29.63 in1003.4 mb 0.00 in0.0 mm 0.00 in0.0 mm 0.00 in0.0 mm
02:40 AM 12.6°F-10.8°C 11.7°F-11.3°C 96% 3.9 mph N6.3 kmh N 5.3 mph8.5 kmh 29.62 in1003.0 mb 0.00 in0.0 mm 0.00 in0.0 mm 0.00 in0.0 mm
02:30 AM 12.7°F-10.7°C 11.8°F-11.2°C 96% 3.5 mph N5.6 kmh N 5.3 mph8.5 kmh 29.62 in1003.0 mb 0.00 in0.0 mm 0.00 in0.0 mm 0.00 in0.0 mm
02:20 AM 12.7°F-10.7°C 11.8°F-11.2°C 96% 2.7 mph N4.3 kmh N 4.7 mph7.6 kmh 29.61 in1002.7 mb 0.00 in0.0 mm 0.00 in0.0 mm 0.00 in0.0 mm
02:10 AM 12.8°F-10.7°C 11.9°F-11.2°C 96% 3.7 mph N6.0 kmh N 5.8 mph9.3 kmh 29.61 in1002.7 mb 0.00 in0.0 mm 0.00 in0.0 mm 0.00 in0.0 mm
02:00 AM 12.9°F-10.6°C 12.0°F-11.1°C 96% 3.6 mph N5.8 kmh N 5.3 mph8.5 kmh 29.61 in1002.7 mb 0.00 in0.0 mm 0.00 in0.0 mm 0.00 in0.0 mm
01:50 AM 12.9°F-10.6°C 12.0°F-11.1°C 96% 3.6 mph NNE5.8 kmh NNE 4.7 mph7.6 kmh 29.61 in1002.7 mb 0.00 in0.0 mm 0.00 in0.0 mm 0.00 in0.0 mm
01:40 AM 13.2°F-10.4°C 12.3°F-10.9°C 96% 3.7 mph N6.0 kmh N 5.8 mph9.3 kmh 29.60 in1002.4 mb 0.00 in0.0 mm 0.00 in0.0 mm 0.00 in0.0 mm
01:30 AM 13.3°F-10.4°C 12.4°F-10.9°C 96% 3.3 mph NNW5.3 kmh NNW 4.7 mph7.6 kmh 29.60 in1002.4 mb 0.00 in0.0 mm 0.00 in0.0 mm 0.00 in0.0 mm
01:20 AM 13.4°F-10.3°C 12.4°F-10.9°C 96% 3.3 mph NNE5.3 kmh NNE 5.3 mph8.5 kmh 29.59 in1002.0 mb 0.00 in0.0 mm 0.00 in0.0 mm 0.00 in0.0 mm
01:10 AM 13.5°F-10.3°C 12.6°F-10.8°C 96% 3.1 mph NNE5.0 kmh NNE 4.7 mph7.6 kmh 29.60 in1002.4 mb 0.00 in0.0 mm 0.00 in0.0 mm 0.00 in0.0 mm
01:00 AM 13.5°F-10.3°C 12.6°F-10.8°C 96% 3.9 mph NNE6.3 kmh NNE 6.3 mph10.1 kmh 29.60 in1002.4 mb 0.00 in0.0 mm 0.00 in0.0 mm 0.00 in0.0 mm
12:50 AM 13.6°F-10.2°C 12.7°F-10.7°C 96% 3.1 mph NE5.0 kmh NE 4.2 mph6.8 kmh 29.60 in1002.4 mb 0.00 in0.0 mm 0.00 in0.0 mm 0.00 in0.0 mm
12:40 AM 13.7°F-10.2°C 12.8°F-10.7°C 96% 3.5 mph NNE5.6 kmh NNE 5.3 mph8.5 kmh 29.60 in1002.4 mb 0.00 in0.0 mm 0.00 in0.0 mm 0.00 in0.0 mm
12:30 AM 13.8°F-10.1°C 12.9°F-10.6°C 96% 3.1 mph NE5.0 kmh NE 4.7 mph7.6 kmh 29.60 in1002.4 mb 0.00 in0.0 mm 0.00 in0.0 mm 0.00 in0.0 mm
12:20 AM 13.8°F-10.1°C 12.9°F-10.6°C 96% 4.1 mph 6.6 kmh 6.3 mph10.1 kmh 29.60 in1002.4 mb 0.00 in0.0 mm 0.00 in0.0 mm 0.00 in0.0 mm
12:10 AM 14.0°F-10.0°C 13.1°F-10.5°C 96% 5.4 mph N8.7 kmh N 8.3 mph13.4 kmh 29.60 in1002.4 mb 0.00 in0.0 mm 0.00 in0.0 mm 0.00 in0.0 mm
12:00 AM 14.4°F-9.8°C 13.5°F-10.3°C 96% 4.1 mph N6.6 kmh N 8.3 mph13.4 kmh 29.60 in1002.4 mb 0.00 in0.0 mm 0.00 in0.0 mm 0.00 in0.0 mm